Denbigh, North Dakota
Current Conditions -  °F | °C
As of 7:35 AM on Saturday 25 Oct 2014 (Local Time) from KRUG Reporting Station
Clear Clear  
Wind Chill: 25°   Ceiling: Unl
Heat Index: 32°   Visibility: 10mi
Dew Point: 28°   Wind: 8mph
Humidity: 87%   Direction: 270°W
Pressure: 30.09"   Gusts: NA
Location:  48.4251°N, 100.424°W
Report Text: KRUG 251235Z AUTO 27007KT 10SM CLR 00/M02 A3009 RMK AO2
Loading
Personal Weather Stations






























Interactive Weather Map
Tropical Storm Tracking
New forecast layout! Learn more

10-Day Weather Forecast

Advertisements
Track Severe Weather on mobile